createdAt,value
2019-06-20T00:06:08.238Z,3.43
2019-06-20T00:15:09.407Z,4.67
2019-06-20T00:23:28.040Z,3.10
2019-06-20T00:32:17.123Z,4.80
2019-06-20T00:40:35.783Z,4.87
2019-06-20T00:49:24.996Z,4.73
2019-06-20T00:57:43.691Z,4.23
2019-06-20T01:06:29.530Z,5.37
2019-06-20T01:14:48.342Z,10.50
2019-06-20T01:23:49.800Z,3.92
2019-06-20T01:32:08.486Z,2.90
2019-06-20T01:40:51.368Z,2.60
2019-06-20T01:49:28.576Z,3.50
2019-06-20T01:57:47.637Z,3.37
2019-06-20T02:06:06.388Z,3.10
2019-06-20T02:14:25.107Z,4.00
2019-06-20T02:22:43.762Z,3.40
2019-06-20T02:31:02.560Z,3.60
2019-06-20T02:39:21.841Z,4.37
2019-06-20T02:47:40.512Z,4.50
2019-06-20T02:55:59.218Z,3.80
2019-06-20T03:04:17.920Z,4.17
2019-06-20T03:13:25.419Z,4.47
2019-06-20T03:21:44.207Z,3.47
2019-06-20T03:30:45.488Z,4.77
2019-06-20T03:39:05.980Z,5.10
2019-06-20T03:47:25.071Z,4.27
2019-06-20T03:55:43.868Z,4.40
2019-06-20T04:04:02.614Z,4.77
2019-06-20T04:12:21.341Z,3.90
2019-06-20T04:20:40.459Z,3.73
2019-06-20T04:28:59.145Z,3.80
2019-06-20T04:37:18.131Z,6.03
2019-06-20T04:45:42.884Z,3.43
2019-06-20T04:54:01.574Z,4.00
2019-06-20T05:02:34.396Z,3.65
2019-06-20T05:10:53.068Z,3.87
2019-06-20T05:19:11.759Z,4.07
2019-06-20T05:27:30.847Z,4.20
2019-06-20T05:35:49.633Z,4.40
2019-06-20T05:44:08.417Z,3.90
2019-06-20T05:52:27.152Z,4.03
2019-06-20T06:00:46.267Z,4.30
2019-06-20T06:09:06.674Z,4.60
2019-06-20T06:17:25.372Z,4.73
2019-06-20T06:25:44.347Z,7.27
2019-06-20T06:34:03.111Z,9.07
2019-06-20T06:42:22.303Z,7.00
2019-06-20T06:50:41.009Z,7.70
2019-06-20T06:59:48.395Z,7.30
2019-06-20T07:08:07.035Z,6.10
2019-06-20T07:16:25.719Z,6.00
2019-06-20T07:24:44.387Z,6.53
2019-06-20T07:33:03.188Z,5.30
2019-06-20T07:41:22.209Z,5.73
2019-06-20T07:49:41.872Z,6.37
2019-06-20T07:58:00.834Z,7.17
2019-06-20T08:06:43.767Z,6.33
2019-06-20T08:15:14.411Z,5.63
2019-06-20T08:23:23.195Z,7.85
2019-06-20T08:32:06.622Z,5.10
2019-06-20T08:40:59.055Z,5.35
2019-06-20T08:49:18.890Z,4.23
2019-06-20T08:57:37.850Z,4.30
2019-06-20T09:05:57.150Z,4.77
2019-06-20T09:14:16.939Z,4.70
2019-06-20T09:22:35.711Z,4.47
2019-06-20T09:30:55.201Z,4.80
2019-06-20T09:39:13.891Z,4.77
2019-06-20T09:47:32.597Z,4.50
2019-06-20T09:55:51.791Z,5.33
2019-06-20T10:04:10.751Z,4.70
2019-06-20T10:12:29.441Z,4.73
2019-06-20T10:20:48.855Z,4.37
2019-06-20T10:29:07.801Z,7.20
2019-06-20T10:37:26.712Z,5.50
2019-06-20T10:45:47.415Z,4.33
2019-06-20T10:54:06.627Z,5.43
2019-06-20T11:02:25.980Z,4.20
2019-06-20T11:11:04.520Z,4.30
2019-06-20T11:19:23.834Z,3.93
2019-06-20T11:27:44.781Z,6.40
2019-06-20T11:36:04.156Z,4.17
2019-06-20T11:44:23.142Z,3.40
2019-06-20T11:52:45.254Z,4.07
2019-06-20T12:01:04.127Z,4.60
2019-06-20T12:09:23.133Z,4.00
2019-06-20T12:17:43.312Z,3.73
2019-06-20T12:26:02.368Z,3.60
2019-06-20T12:34:21.393Z,3.00
2019-06-20T12:42:49.228Z,3.60
2019-06-20T12:51:08.221Z,2.60
2019-06-20T12:59:41.360Z,3.13
2019-06-20T13:08:15.702Z,3.10
2019-06-20T13:16:34.398Z,3.37
2019-06-20T13:24:53.086Z,3.20
2019-06-20T13:33:12.236Z,3.13
2019-06-20T13:41:30.927Z,4.47
2019-06-20T13:49:50.137Z,4.10
2019-06-20T13:58:09.010Z,3.97
2019-06-20T14:06:27.741Z,4.30
2019-06-20T14:14:47.787Z,5.28
2019-06-20T14:23:07.022Z,5.60
2019-06-20T14:31:25.741Z,3.40
2019-06-20T14:39:45.003Z,3.80
2019-06-20T14:48:04.682Z,4.90
2019-06-20T14:56:25.081Z,7.07
2019-06-20T15:04:44.912Z,6.77
2019-06-20T15:13:04.370Z,4.90
2019-06-20T15:21:23.197Z,4.63
2019-06-20T15:29:42.024Z,3.50
2019-06-20T15:38:02.573Z,3.60
2019-06-20T15:46:21.540Z,4.60
2019-06-20T15:54:42.807Z,3.90
2019-06-20T16:03:09.907Z,3.40
2019-06-20T16:11:21.435Z,4.10
2019-06-20T16:19:40.131Z,3.17
2019-06-20T16:27:58.890Z,4.13
2019-06-20T16:36:17.600Z,3.23
2019-06-20T16:44:36.471Z,3.20
2019-06-20T16:52:55.301Z,3.33
2019-06-20T17:01:14.295Z,5.30
2019-06-20T17:09:33.510Z,4.40
2019-06-20T17:17:52.599Z,4.33
2019-06-20T17:26:11.687Z,3.80
2019-06-20T17:34:30.384Z,4.07
2019-06-20T17:42:49.243Z,4.00
2019-06-20T17:51:08.579Z,4.53
2019-06-20T17:59:27.230Z,6.60
2019-06-20T18:07:45.919Z,4.23
2019-06-20T18:16:04.765Z,5.20
2019-06-20T18:24:23.551Z,7.30
2019-06-20T18:32:42.342Z,11.47
2019-06-20T18:41:01.133Z,6.80
2019-06-20T18:49:19.882Z,9.67
2019-06-20T18:57:38.821Z,6.90
2019-06-20T19:05:59.239Z,10.33
2019-06-20T19:14:17.893Z,8.30
2019-06-20T19:22:36.773Z,7.67
2019-06-20T19:30:55.849Z,22.43
2019-06-20T19:39:14.541Z,9.33
2019-06-20T19:47:33.305Z,16.63
2019-06-20T19:55:52.252Z,15.80
2019-06-20T20:04:10.950Z,10.33
2019-06-20T20:12:29.920Z,8.00
2019-06-20T20:20:48.978Z,6.20
2019-06-20T20:29:07.647Z,6.17
2019-06-20T20:37:26.709Z,5.80
2019-06-20T20:45:45.464Z,7.00
2019-06-20T20:54:04.178Z,7.10
2019-06-20T21:02:22.844Z,6.77
2019-06-20T21:10:41.538Z,7.30
2019-06-20T21:19:00.559Z,6.43
2019-06-20T21:27:19.458Z,7.20
2019-06-20T21:35:38.107Z,7.50
2019-06-20T21:43:56.812Z,8.73
2019-06-20T21:52:15.559Z,10.07
2019-06-20T22:00:39.857Z,10.40
2019-06-20T22:08:58.573Z,17.57
2019-06-20T22:17:17.254Z,13.27
2019-06-20T22:25:35.993Z,17.83
2019-06-20T22:33:54.661Z,15.23
2019-06-20T22:42:13.347Z,22.40
2019-06-20T22:50:32.006Z,18.83
2019-06-20T22:58:50.685Z,25.73
2019-06-20T23:07:09.387Z,20.17
2019-06-20T23:15:28.099Z,23.07
2019-06-20T23:23:47.067Z,23.77
2019-06-20T23:32:05.755Z,17.00
2019-06-20T23:40:24.431Z,16.40
2019-06-20T23:48:43.481Z,16.37
2019-06-20T23:57:02.262Z,13.90
